createdAt,value
2023-05-04T00:00:36.927Z,102168.00
2023-05-04T00:03:05.566Z,102170.52
2023-05-04T00:05:33.832Z,102165.08
2023-05-04T00:08:02.199Z,102164.94
2023-05-04T00:10:30.563Z,102164.71
2023-05-04T00:12:59.028Z,102160.11
2023-05-04T00:15:28.227Z,102158.72
2023-05-04T00:17:57.012Z,102156.05
2023-05-04T00:20:24.242Z,102160.70
2023-05-04T00:22:52.909Z,102159.80
2023-05-04T00:25:21.143Z,102158.82
2023-05-04T00:27:49.506Z,102154.61
2023-05-04T00:30:18.036Z,102157.23
2023-05-04T00:32:46.697Z,102155.32
2023-05-04T00:35:14.987Z,102157.13
2023-05-04T00:37:43.819Z,102153.36
2023-05-04T00:40:12.349Z,102152.05
2023-05-04T00:42:40.007Z,102154.18
2023-05-04T00:45:09.210Z,102156.23
2023-05-04T00:47:37.202Z,102158.52
2023-05-04T00:50:07.005Z,102155.56
2023-05-04T00:52:38.468Z,102157.39
2023-05-04T00:55:10.029Z,102152.55
2023-05-04T00:57:40.844Z,102155.70
2023-05-04T01:00:13.329Z,102156.81
2023-05-04T01:02:43.358Z,102151.99
2023-05-04T01:05:14.017Z,102152.21
2023-05-04T01:08:04.423Z,102152.55
2023-05-04T01:10:43.067Z,102147.34
2023-05-04T01:13:16.689Z,102145.73
2023-05-04T01:15:47.611Z,102145.48
2023-05-04T01:18:17.963Z,102144.54
2023-05-04T01:20:46.060Z,102142.52
2023-05-04T01:23:14.459Z,102140.92
2023-05-04T01:26:11.223Z,102141.90
2023-05-04T01:28:57.079Z,102143.83
2023-05-04T01:31:27.563Z,102143.43
2023-05-04T01:33:58.554Z,102143.36
2023-05-04T01:36:29.193Z,102143.23
2023-05-04T01:38:59.963Z,102146.23
2023-05-04T01:41:32.965Z,102152.43
2023-05-04T01:44:04.733Z,102151.40
2023-05-04T01:46:34.521Z,102148.65
2023-05-04T01:49:04.505Z,102148.73
2023-05-04T01:51:34.256Z,102150.21
2023-05-04T01:54:04.166Z,102149.27
2023-05-04T01:56:33.979Z,102150.45
2023-05-04T01:59:03.978Z,102147.35
2023-05-04T02:01:33.829Z,102146.83
2023-05-04T02:04:04.042Z,102145.25
2023-05-04T02:06:34.007Z,102140.17
2023-05-04T02:09:03.919Z,102142.09
2023-05-04T02:11:33.711Z,102143.86
2023-05-04T02:14:04.398Z,102143.85
2023-05-04T02:16:34.275Z,102145.63
2023-05-04T02:19:04.289Z,102143.33
2023-05-04T02:21:32.608Z,102141.27
2023-05-04T02:24:01.091Z,102134.43
2023-05-04T02:26:29.411Z,102133.92
2023-05-04T02:28:57.885Z,102128.79
2023-05-04T02:31:26.472Z,102128.86
2023-05-04T02:33:55.426Z,102127.25
2023-05-04T02:36:23.278Z,102127.70
2023-05-04T02:38:51.689Z,102128.27
2023-05-04T02:41:20.539Z,102134.98
2023-05-04T02:43:48.413Z,102136.37
2023-05-04T02:46:17.124Z,102139.88
2023-05-04T02:48:46.210Z,102139.52
2023-05-04T02:51:14.205Z,102138.42
2023-05-04T02:53:42.217Z,102133.23
2023-05-04T02:56:10.906Z,102136.23
2023-05-04T02:58:39.036Z,102137.70
2023-05-04T03:01:07.727Z,102138.63
2023-05-04T03:03:36.597Z,102132.30
2023-05-04T03:06:06.610Z,102135.15
2023-05-04T03:08:35.968Z,102130.87
2023-05-04T03:11:03.264Z,102133.36
2023-05-04T03:13:31.655Z,102133.78
2023-05-04T03:15:59.932Z,102132.95
2023-05-04T03:18:28.411Z,102133.50
2023-05-04T03:20:57.171Z,102132.23
2023-05-04T03:23:25.290Z,102130.83
2023-05-04T03:25:53.653Z,102128.85
2023-05-04T03:28:22.306Z,102129.65
2023-05-04T03:30:50.581Z,102127.67
2023-05-04T03:33:19.077Z,102128.61
2023-05-04T03:35:47.534Z,102130.41
2023-05-04T03:38:16.661Z,102131.52
2023-05-04T03:40:45.040Z,102135.90
2023-05-04T03:43:12.670Z,102133.86
2023-05-04T03:45:41.210Z,102134.45
2023-05-04T03:48:09.731Z,102134.34
2023-05-04T03:50:38.112Z,102134.23
2023-05-04T03:53:06.427Z,102130.94
2023-05-04T03:55:34.892Z,102131.17
2023-05-04T03:58:03.644Z,102129.59
2023-05-04T04:00:31.788Z,102125.94
2023-05-04T04:03:00.078Z,102126.23
2023-05-04T04:05:28.830Z,102128.18
2023-05-04T04:07:57.008Z,102131.88
2023-05-04T04:10:25.470Z,102131.77
2023-05-04T04:12:53.736Z,102130.52
2023-05-04T04:15:22.370Z,102126.33
2023-05-04T04:17:50.927Z,102125.35
2023-05-04T04:20:19.079Z,102127.27
2023-05-04T04:22:47.493Z,102127.81
2023-05-04T04:25:15.846Z,102125.80
2023-05-04T04:27:44.371Z,102123.16
2023-05-04T04:30:13.883Z,102122.21
2023-05-04T04:32:42.351Z,102122.42
2023-05-04T04:35:10.613Z,102123.71
2023-05-04T04:37:39.043Z,102120.33
2023-05-04T04:40:09.021Z,102116.39
2023-05-04T04:42:37.424Z,102116.83
2023-05-04T04:45:08.327Z,102117.43
2023-05-04T04:47:40.250Z,102117.19
2023-05-04T04:50:10.860Z,102117.52
2023-05-04T04:52:41.384Z,102120.30
2023-05-04T04:55:11.476Z,102116.10
2023-05-04T04:57:41.291Z,102121.92
2023-05-04T05:00:14.411Z,102125.86
2023-05-04T05:02:44.262Z,102124.31
2023-05-04T05:05:14.284Z,102124.93
2023-05-04T05:07:44.199Z,102126.14
2023-05-04T05:10:14.186Z,102126.80
2023-05-04T05:12:44.249Z,102129.36
2023-05-04T05:15:14.263Z,102122.63
2023-05-04T05:17:44.149Z,102120.17
2023-05-04T05:20:15.318Z,102113.50
2023-05-04T05:22:45.137Z,102120.67
2023-05-04T05:25:14.945Z,102117.30
2023-05-04T05:27:45.323Z,102110.89
2023-05-04T05:30:15.495Z,102107.00
2023-05-04T05:32:48.446Z,102110.40
2023-05-04T05:35:19.154Z,102114.99
2023-05-04T05:37:49.311Z,102110.80
2023-05-04T05:40:19.326Z,102110.02
2023-05-04T05:42:49.734Z,102109.58
2023-05-04T05:45:18.340Z,102112.24
2023-05-04T05:47:46.212Z,102111.98
2023-05-04T05:50:14.587Z,102110.73
2023-05-04T05:52:42.711Z,102109.78
2023-05-04T05:55:12.085Z,102104.71
2023-05-04T05:57:39.612Z,102101.38
2023-05-04T06:00:09.391Z,102096.80
2023-05-04T06:02:36.572Z,102101.77
2023-05-04T06:05:05.502Z,102096.98
2023-05-04T06:07:33.256Z,102094.78
2023-05-04T06:10:02.098Z,102094.58
2023-05-04T06:12:30.328Z,102099.85
2023-05-04T06:14:58.885Z,102098.21
2023-05-04T06:17:27.377Z,102097.27
2023-05-04T06:19:55.962Z,102092.87
2023-05-04T06:22:24.275Z,102087.33
2023-05-04T06:24:55.684Z,102083.63
2023-05-04T06:27:30.311Z,102079.06
2023-05-04T06:30:00.145Z,102079.36
2023-05-04T06:32:30.828Z,102077.48
2023-05-04T06:35:02.461Z,102081.61
2023-05-04T06:37:32.539Z,102083.92
2023-05-04T06:40:04.023Z,102084.55
2023-05-04T06:42:33.758Z,102089.67
2023-05-04T06:45:04.503Z,102095.68
2023-05-04T06:47:37.948Z,102094.52
2023-05-04T06:50:10.099Z,102093.43
2023-05-04T06:52:42.350Z,102089.81
2023-05-04T06:55:13.655Z,102090.48
2023-05-04T06:57:43.424Z,102090.40
2023-05-04T07:00:14.697Z,102084.92
2023-05-04T07:02:44.489Z,102085.05
2023-05-04T07:05:14.246Z,102082.70
2023-05-04T07:07:43.990Z,102079.53
2023-05-04T07:10:15.362Z,102081.73
2023-05-04T07:12:45.067Z,102078.61
2023-05-04T07:15:15.162Z,102076.27
2023-05-04T07:17:46.768Z,102078.29
2023-05-04T07:20:16.763Z,102078.63
2023-05-04T07:22:46.747Z,102075.84
2023-05-04T07:25:16.465Z,102071.98
2023-05-04T07:27:46.434Z,102069.19
2023-05-04T07:30:16.306Z,102066.50
2023-05-04T07:32:46.469Z,102063.13
2023-05-04T07:35:16.261Z,102066.36
2023-05-04T07:37:46.534Z,102056.39
2023-05-04T07:40:16.691Z,102058.17
2023-05-04T07:42:46.514Z,102060.29
2023-05-04T07:45:16.891Z,102051.08
2023-05-04T07:47:46.674Z,102042.46
2023-05-04T07:50:16.716Z,102043.47
2023-05-04T07:52:47.875Z,102043.88
2023-05-04T07:55:19.018Z,102033.13
2023-05-04T07:57:46.062Z,102031.14
2023-05-04T08:00:16.098Z,102026.58
2023-05-04T08:02:43.048Z,102027.23
2023-05-04T08:05:11.745Z,102028.80
2023-05-04T08:07:39.971Z,102026.30
2023-05-04T08:10:09.776Z,102022.23
2023-05-04T08:12:36.546Z,102021.81
2023-05-04T08:15:06.453Z,102020.77
2023-05-04T08:17:37.961Z,102017.06
2023-05-04T08:20:08.087Z,102019.73
2023-05-04T08:22:36.766Z,102020.17
2023-05-04T08:25:06.379Z,102021.67
2023-05-04T08:27:33.861Z,102017.10
2023-05-04T08:30:02.503Z,102012.56
2023-05-04T08:32:33.295Z,102011.30
2023-05-04T08:35:02.666Z,102009.27
2023-05-04T08:37:31.255Z,102005.10
2023-05-04T08:40:00.117Z,101994.82
2023-05-04T08:42:33.349Z,101994.58
2023-05-04T08:45:01.319Z,101999.93
2023-05-04T08:47:29.714Z,101997.62
2023-05-04T08:49:58.414Z,102000.14
2023-05-04T08:52:28.175Z,101994.23
2023-05-04T08:54:57.751Z,101992.32
2023-05-04T08:57:26.607Z,101990.64
2023-05-04T08:59:57.513Z,101988.27
2023-05-04T09:02:27.818Z,101981.92
2023-05-04T09:04:57.754Z,101983.41
2023-05-04T09:07:27.615Z,101982.34
2023-05-04T09:09:57.956Z,101977.26
2023-05-04T09:12:27.836Z,101978.00
2023-05-04T09:14:58.449Z,101978.95
2023-05-04T09:17:29.509Z,101978.97
2023-05-04T09:20:01.357Z,101978.29
2023-05-04T09:22:30.978Z,101979.80
2023-05-04T09:25:13.588Z,101975.40
2023-05-04T09:27:54.795Z,101978.17
2023-05-04T09:30:25.180Z,101979.44
2023-05-04T09:32:53.592Z,101977.23
2023-05-04T09:35:33.782Z,101967.92
2023-05-04T09:38:04.683Z,101962.90
2023-05-04T09:40:43.046Z,101962.21
2023-05-04T09:43:13.493Z,101961.31
2023-05-04T09:45:48.753Z,101963.31
2023-05-04T09:48:20.524Z,101958.45
2023-05-04T09:50:56.499Z,101954.08
2023-05-04T09:53:31.633Z,101947.04
2023-05-04T09:56:29.449Z,101948.15
2023-05-04T09:58:59.973Z,101950.11
2023-05-04T10:01:30.711Z,101943.27
2023-05-04T10:03:59.372Z,101932.66
2023-05-04T10:06:32.409Z,101932.84
2023-05-04T10:09:02.232Z,101931.81
2023-05-04T10:11:32.557Z,101920.58
2023-05-04T10:14:02.531Z,101913.09
2023-05-04T10:16:55.212Z,101913.19
2023-05-04T10:20:07.283Z,101916.52
2023-05-04T10:23:14.470Z,101911.27
2023-05-04T10:26:33.163Z,101911.73
2023-05-04T10:29:25.295Z,101907.16
2023-05-04T10:31:53.467Z,101903.29
2023-05-04T10:34:27.019Z,101901.86
2023-05-04T10:36:58.995Z,101901.31
2023-05-04T10:39:34.287Z,101897.04
2023-05-04T10:42:09.044Z,101893.61
2023-05-04T10:44:56.062Z,101881.73
2023-05-04T10:47:38.012Z,101873.34
2023-05-04T10:50:15.616Z,101876.73
2023-05-04T10:52:51.996Z,101879.38
2023-05-04T10:55:22.673Z,101873.34
2023-05-04T10:57:55.099Z,101877.16
2023-05-04T11:00:36.717Z,101870.90
2023-05-04T11:03:07.653Z,101868.34
2023-05-04T11:05:54.349Z,101854.41
2023-05-04T11:08:27.272Z,101848.41
2023-05-04T11:11:06.990Z,101843.34
2023-05-04T11:13:40.873Z,101842.11
2023-05-04T11:16:12.575Z,101840.83
2023-05-04T11:18:42.624Z,101839.09
2023-05-04T11:21:12.556Z,101834.18
2023-05-04T11:23:43.727Z,101836.35
2023-05-04T11:26:14.785Z,101826.48
2023-05-04T11:28:44.525Z,101829.79
2023-05-04T11:31:17.115Z,101834.52
2023-05-04T11:33:54.874Z,101832.43
2023-05-04T11:36:24.289Z,101829.77
2023-05-04T11:38:51.801Z,101831.86
2023-05-04T11:41:26.792Z,101831.86
2023-05-04T11:43:56.114Z,101823.15
2023-05-04T11:46:26.142Z,101821.14
2023-05-04T11:48:56.074Z,101812.27
2023-05-04T11:51:26.007Z,101814.20
2023-05-04T11:53:57.020Z,101811.55
2023-05-04T11:56:27.320Z,101807.98
2023-05-04T11:59:09.082Z,101803.73
2023-05-04T12:01:37.658Z,101805.11
2023-05-04T12:04:07.857Z,101798.04
2023-05-04T12:06:38.560Z,101791.84
2023-05-04T12:09:07.842Z,101787.94
2023-05-04T12:11:38.444Z,101785.39
2023-05-04T12:14:17.000Z,101783.98
2023-05-04T12:16:57.888Z,101781.10
2023-05-04T12:19:26.124Z,101779.92
2023-05-04T12:21:58.422Z,101774.77
2023-05-04T12:24:28.221Z,101779.19
2023-05-04T12:26:56.068Z,101780.27
2023-05-04T12:29:23.344Z,101778.98
2023-05-04T12:31:53.261Z,101779.33
2023-05-04T12:34:22.699Z,101777.63
2023-05-04T12:36:52.409Z,101774.33
2023-05-04T12:39:22.230Z,101772.15
2023-05-04T12:41:51.982Z,101778.36
2023-05-04T12:44:21.833Z,101771.84
2023-05-04T12:46:52.141Z,101775.79
2023-05-04T12:49:24.648Z,101775.95
2023-05-04T12:51:52.776Z,101772.52
2023-05-04T12:54:22.632Z,101771.73
2023-05-04T12:56:53.409Z,101771.73
2023-05-04T12:59:21.995Z,101765.30
2023-05-04T13:01:49.398Z,101770.44
2023-05-04T13:04:17.877Z,101762.44
2023-05-04T13:06:48.402Z,101759.59
2023-05-04T13:09:18.161Z,101756.55
2023-05-04T13:11:46.222Z,101754.02
2023-05-04T13:14:14.612Z,101749.06
2023-05-04T13:16:42.790Z,101747.04
2023-05-04T13:19:11.393Z,101746.48
2023-05-04T13:21:39.530Z,101739.08
2023-05-04T13:24:08.443Z,101728.33
2023-05-04T13:26:36.559Z,101724.29
2023-05-04T13:29:05.540Z,101724.50
2023-05-04T13:31:33.401Z,101718.40
2023-05-04T13:34:01.726Z,101719.90
2023-05-04T13:36:30.390Z,101711.36
2023-05-04T13:38:58.653Z,101709.23
2023-05-04T13:41:27.243Z,101709.41
2023-05-04T13:43:56.184Z,101700.16
2023-05-04T13:46:24.275Z,101703.98
2023-05-04T13:48:54.222Z,101695.09
2023-05-04T13:51:25.911Z,101695.77
2023-05-04T13:53:55.888Z,101692.94
2023-05-04T13:56:25.936Z,101688.70
2023-05-04T13:58:55.951Z,101688.13
2023-05-04T14:01:26.151Z,101676.46
2023-05-04T14:03:55.971Z,101670.08
2023-05-04T14:06:26.127Z,101673.09
2023-05-04T14:08:56.311Z,101669.46
2023-05-04T14:11:26.203Z,101667.38
2023-05-04T14:13:56.135Z,101659.70
2023-05-04T14:16:27.747Z,101655.58
2023-05-04T14:18:57.732Z,101649.08
2023-05-04T14:21:28.101Z,101641.35
2023-05-04T14:23:57.904Z,101640.40
2023-05-04T14:26:27.789Z,101641.61
2023-05-04T14:28:57.894Z,101635.38
2023-05-04T14:31:28.138Z,101634.30
2023-05-04T14:33:57.930Z,101627.89
2023-05-04T14:36:27.752Z,101624.26
2023-05-04T14:38:58.406Z,101624.16
2023-05-04T14:41:33.312Z,101623.77
2023-05-04T14:44:04.391Z,101619.88
2023-05-04T14:46:34.168Z,101616.21
2023-05-04T14:49:02.857Z,101607.63
2023-05-04T14:51:33.674Z,101605.50
2023-05-04T14:54:03.304Z,101608.48
2023-05-04T14:56:31.626Z,101609.27
2023-05-04T14:59:01.722Z,101612.38
2023-05-04T15:01:28.670Z,101607.46
2023-05-04T15:03:57.646Z,101604.23
2023-05-04T15:06:27.339Z,101607.27
2023-05-04T15:08:55.164Z,101601.94
2023-05-04T15:11:23.163Z,101593.17
2023-05-04T15:13:51.830Z,101594.08
2023-05-04T15:16:20.229Z,101586.52
2023-05-04T15:18:48.609Z,101588.08
2023-05-04T15:21:17.163Z,101587.04
2023-05-04T15:23:45.574Z,101585.45
2023-05-04T15:26:14.074Z,101577.71
2023-05-04T15:28:42.658Z,101576.05
2023-05-04T15:31:11.392Z,101577.79
2023-05-04T15:33:41.302Z,101572.42
2023-05-04T15:36:11.430Z,101573.35
2023-05-04T15:38:38.906Z,101572.83
2023-05-04T15:41:07.190Z,101572.05
2023-05-04T15:43:36.991Z,101571.00
2023-05-04T15:46:07.044Z,101563.40
2023-05-04T15:48:36.847Z,101564.80
2023-05-04T15:51:13.036Z,101558.50
2023-05-04T15:53:41.294Z,101557.02
2023-05-04T15:56:13.254Z,101560.35
2023-05-04T15:58:45.102Z,101558.48
2023-05-04T16:01:15.040Z,101555.27
2023-05-04T16:03:45.539Z,101554.09
2023-05-04T16:06:15.723Z,101550.31
2023-05-04T16:08:45.512Z,101545.23
2023-05-04T16:11:15.480Z,101545.83
2023-05-04T16:13:46.346Z,101541.38
2023-05-04T16:16:15.496Z,101540.58
2023-05-04T16:18:45.368Z,101546.99
2023-05-04T16:21:15.211Z,101545.90
2023-05-04T16:23:45.463Z,101543.82
2023-05-04T16:26:15.276Z,101539.75
2023-05-04T16:28:45.330Z,101536.66
2023-05-04T16:31:15.449Z,101535.08
2023-05-04T16:33:47.925Z,101536.54
2023-05-04T16:36:16.923Z,101531.20
2023-05-04T16:38:48.581Z,101525.66
2023-05-04T16:41:18.824Z,101531.78
2023-05-04T16:43:49.227Z,101528.70
2023-05-04T16:46:18.284Z,101522.84
2023-05-04T16:48:48.152Z,101524.34
2023-05-04T16:51:18.017Z,101521.34
2023-05-04T16:53:48.183Z,101516.84
2023-05-04T16:56:19.454Z,101520.65
2023-05-04T16:58:50.090Z,101517.84
2023-05-04T17:01:20.476Z,101521.05
2023-05-04T17:03:49.691Z,101525.52
2023-05-04T17:06:19.628Z,101521.61
2023-05-04T17:08:49.366Z,101524.63
2023-05-04T17:11:21.954Z,101521.08
2023-05-04T17:13:51.229Z,101521.75
2023-05-04T17:16:21.167Z,101520.86
2023-05-04T17:18:50.915Z,101513.66
2023-05-04T17:21:20.960Z,101515.63
2023-05-04T17:23:50.721Z,101519.19
2023-05-04T17:26:20.468Z,101516.67
2023-05-04T17:28:51.479Z,101520.60
2023-05-04T17:31:20.908Z,101519.36
2023-05-04T17:33:50.827Z,101521.52
2023-05-04T17:36:20.684Z,101520.98
2023-05-04T17:38:49.073Z,101520.09
2023-05-04T17:41:17.735Z,101523.88
2023-05-04T17:43:46.047Z,101516.06
2023-05-04T17:46:14.347Z,101522.66
2023-05-04T17:48:44.592Z,101520.73
2023-05-04T17:51:14.245Z,101520.91
2023-05-04T17:53:42.584Z,101519.66
2023-05-04T17:56:11.146Z,101516.45
2023-05-04T17:58:40.001Z,101519.09
2023-05-04T18:01:07.979Z,101521.23
2023-05-04T18:03:36.576Z,101521.23
2023-05-04T18:06:06.182Z,101527.23
2023-05-04T18:08:33.190Z,101532.18
2023-05-04T18:11:01.556Z,101541.20
2023-05-04T18:13:30.230Z,101545.42
2023-05-04T18:15:58.575Z,101548.23
2023-05-04T18:18:26.942Z,101551.21
2023-05-04T18:20:58.710Z,101554.71
2023-05-04T18:23:29.219Z,101555.17
2023-05-04T18:25:58.934Z,101555.64
2023-05-04T18:28:28.839Z,101553.46
2023-05-04T18:30:59.193Z,101548.27
2023-05-04T18:33:29.069Z,101546.78
2023-05-04T18:35:58.858Z,101550.11
2023-05-04T18:38:28.780Z,101556.11
2023-05-04T18:40:58.506Z,101555.85
2023-05-04T18:43:28.517Z,101557.23
2023-05-04T18:45:58.801Z,101558.36
2023-05-04T18:48:28.599Z,101557.57
2023-05-04T18:50:58.527Z,101569.38
2023-05-04T18:53:28.330Z,101573.20
2023-05-04T18:56:09.360Z,101573.48
2023-05-04T18:58:38.337Z,101575.02
2023-05-04T19:01:07.480Z,101576.56
2023-05-04T19:03:37.515Z,101584.09
2023-05-04T19:06:07.810Z,101586.48
2023-05-04T19:08:37.682Z,101590.13
2023-05-04T19:11:07.824Z,101593.96
2023-05-04T19:13:37.877Z,101592.65
2023-05-04T19:16:12.261Z,101588.28
2023-05-04T19:18:41.409Z,101587.50
2023-05-04T19:21:11.261Z,101589.92
2023-05-04T19:23:41.220Z,101589.79
2023-05-04T19:26:09.667Z,101587.39
2023-05-04T19:28:39.991Z,101580.40
2023-05-04T19:31:09.520Z,101573.20
2023-05-04T19:33:48.046Z,101571.59
2023-05-04T19:36:18.470Z,101576.44
2023-05-04T19:38:47.009Z,101578.27
2023-05-04T19:41:15.527Z,101580.88
2023-05-04T19:43:43.780Z,101576.10
2023-05-04T19:46:12.497Z,101576.67
2023-05-04T19:48:40.610Z,101582.75
2023-05-04T19:51:09.108Z,101579.61
2023-05-04T19:53:37.652Z,101578.16
2023-05-04T19:56:05.852Z,101581.58
2023-05-04T19:58:34.329Z,101581.37
2023-05-04T20:01:02.720Z,101582.33
2023-05-04T20:03:31.089Z,101584.58
2023-05-04T20:05:58.660Z,101581.34
2023-05-04T20:08:25.620Z,101583.52
2023-05-04T20:10:54.086Z,101581.44
2023-05-04T20:13:23.161Z,101580.57
2023-05-04T20:15:51.659Z,101582.69
2023-05-04T20:18:20.160Z,101579.11
2023-05-04T20:20:47.594Z,101577.92
2023-05-04T20:23:16.706Z,101580.61
2023-05-04T20:25:44.642Z,101578.64
2023-05-04T20:28:12.825Z,101576.16
2023-05-04T20:30:41.388Z,101579.02
2023-05-04T20:33:09.863Z,101583.26
2023-05-04T20:35:41.555Z,101584.88
2023-05-04T20:38:09.873Z,101582.34
2023-05-04T20:40:38.132Z,101583.40
2023-05-04T20:43:06.524Z,101581.67
2023-05-04T20:45:35.035Z,101581.61
2023-05-04T20:48:04.430Z,101580.91
2023-05-04T20:50:31.784Z,101579.05
2023-05-04T20:53:01.332Z,101576.39
2023-05-04T20:55:28.848Z,101576.83
2023-05-04T20:57:57.327Z,101576.14
2023-05-04T21:00:25.475Z,101576.45
2023-05-04T21:02:54.836Z,101574.92
2023-05-04T21:05:22.306Z,101574.65
2023-05-04T21:07:52.304Z,101570.50
2023-05-04T21:10:20.055Z,101569.31
2023-05-04T21:12:47.973Z,101565.45
2023-05-04T21:15:16.483Z,101561.55
2023-05-04T21:17:44.448Z,101563.78
2023-05-04T21:20:12.920Z,101560.98
2023-05-04T21:22:41.677Z,101558.76
2023-05-04T21:25:09.651Z,101555.97
2023-05-04T21:27:38.016Z,101557.84
2023-05-04T21:30:09.773Z,101555.80
2023-05-04T21:32:38.462Z,101553.63
2023-05-04T21:35:09.025Z,101556.09
2023-05-04T21:37:38.554Z,101554.64
2023-05-04T21:40:09.718Z,101555.66
2023-05-04T21:42:38.685Z,101555.39
2023-05-04T21:45:08.962Z,101554.65
2023-05-04T21:47:38.798Z,101553.80
2023-05-04T21:50:09.821Z,101554.04
2023-05-04T21:52:38.968Z,101560.11
2023-05-04T21:55:09.395Z,101558.18
2023-05-04T21:57:39.322Z,101560.86
2023-05-04T22:00:17.696Z,101559.89
2023-05-04T22:02:45.190Z,101561.82
2023-05-04T22:05:12.675Z,101562.99
2023-05-04T22:07:42.605Z,101560.15
2023-05-04T22:10:12.413Z,101559.05
2023-05-04T22:12:42.207Z,101559.20
2023-05-04T22:15:12.127Z,101561.67
2023-05-04T22:17:42.121Z,101560.11
2023-05-04T22:20:13.491Z,101564.27
2023-05-04T22:22:42.484Z,101566.20
2023-05-04T22:25:12.511Z,101565.63
2023-05-04T22:27:42.290Z,101569.98
2023-05-04T22:30:13.072Z,101568.23
2023-05-04T22:32:42.049Z,101566.92
2023-05-04T22:35:11.843Z,101566.16
2023-05-04T22:37:41.560Z,101564.59
2023-05-04T22:40:11.598Z,101564.05
2023-05-04T22:42:41.468Z,101564.02
2023-05-04T22:45:15.263Z,101568.02
2023-05-04T22:47:46.318Z,101566.77
2023-05-04T22:50:16.233Z,101571.92
2023-05-04T22:52:46.240Z,101574.77
2023-05-04T22:55:16.230Z,101576.53
2023-05-04T22:57:46.067Z,101577.73
2023-05-04T23:00:16.686Z,101578.86
2023-05-04T23:02:46.275Z,101576.23
2023-05-04T23:05:16.216Z,101576.24
2023-05-04T23:07:44.544Z,101583.52
2023-05-04T23:10:12.909Z,101584.09
2023-05-04T23:12:41.364Z,101584.86
2023-05-04T23:15:10.117Z,101584.24
2023-05-04T23:17:38.768Z,101584.77
2023-05-04T23:20:09.399Z,101582.10
2023-05-04T23:22:37.945Z,101582.12
2023-05-04T23:25:07.090Z,101583.45
2023-05-04T23:27:34.935Z,101584.77
2023-05-04T23:30:03.866Z,101580.69
2023-05-04T23:32:31.803Z,101579.56
2023-05-04T23:35:00.186Z,101582.08
2023-05-04T23:37:33.370Z,101581.13
2023-05-04T23:40:01.946Z,101587.52
2023-05-04T23:42:31.268Z,101589.25
2023-05-04T23:45:00.956Z,101589.25
2023-05-04T23:47:30.788Z,101587.41
2023-05-04T23:50:01.145Z,101590.63
2023-05-04T23:52:30.770Z,101585.80
2023-05-04T23:55:00.711Z,101578.89
2023-05-04T23:57:30.448Z,101577.42
